createdAt,value
2022-09-13T00:01:55.920Z,18.64
2022-09-13T00:04:23.522Z,18.62
2022-09-13T00:06:50.777Z,18.57
2022-09-13T00:09:18.085Z,18.58
2022-09-13T00:11:45.600Z,18.48
2022-09-13T00:14:12.780Z,18.41
2022-09-13T00:16:40.086Z,18.38
2022-09-13T00:19:07.613Z,18.24
2022-09-13T00:21:34.805Z,18.22
2022-09-13T00:24:02.218Z,18.22
2022-09-13T00:26:29.681Z,18.16
2022-09-13T00:28:57.403Z,18.08
2022-09-13T00:31:25.333Z,17.87
2022-09-13T00:33:52.915Z,17.76
2022-09-13T00:36:20.130Z,17.78
2022-09-13T00:38:47.349Z,17.81
2022-09-13T00:41:15.867Z,17.69
2022-09-13T00:43:47.818Z,17.25
2022-09-13T00:46:20.833Z,17.36
2022-09-13T00:48:48.216Z,17.21
2022-09-13T00:51:15.683Z,17.26
2022-09-13T00:53:44.264Z,17.27
2022-09-13T00:56:22.764Z,17.28
2022-09-13T00:58:52.002Z,17.31
2022-09-13T01:01:19.582Z,17.26
2022-09-13T01:03:46.886Z,17.31
2022-09-13T01:06:18.420Z,17.22
2022-09-13T01:08:46.547Z,17.16
2022-09-13T01:11:17.866Z,17.16
2022-09-13T01:13:45.437Z,17.21
2022-09-13T01:16:12.744Z,17.17
2022-09-13T01:18:40.075Z,16.98
2022-09-13T01:21:26.265Z,16.99
2022-09-13T01:24:12.390Z,16.86
2022-09-13T01:26:45.702Z,16.81
2022-09-13T01:29:28.435Z,16.86
2022-09-13T01:31:58.766Z,16.98
2022-09-13T01:34:33.897Z,17.08
2022-09-13T01:37:15.741Z,16.90
2022-09-13T01:40:12.989Z,16.95
2022-09-13T01:42:47.231Z,16.96
2022-09-13T01:45:23.757Z,16.84
2022-09-13T01:47:56.807Z,16.80
2022-09-13T01:50:35.028Z,17.06
2022-09-13T01:53:19.487Z,16.97
2022-09-13T01:55:49.019Z,17.15
2022-09-13T01:58:28.742Z,17.12
2022-09-13T02:01:18.379Z,17.02
2022-09-13T02:03:48.620Z,16.88
2022-09-13T02:06:18.206Z,16.69
2022-09-13T02:08:46.606Z,16.80
2022-09-13T02:11:14.425Z,16.84
2022-09-13T02:13:43.654Z,16.80
2022-09-13T02:16:13.054Z,16.88
2022-09-13T02:18:41.318Z,16.90
2022-09-13T02:21:29.069Z,16.89
2022-09-13T02:24:01.624Z,16.89
2022-09-13T02:26:29.447Z,16.73
2022-09-13T02:28:57.788Z,16.66
2022-09-13T02:31:26.843Z,16.64
2022-09-13T02:33:55.951Z,16.62
2022-09-13T02:36:24.350Z,16.64
2022-09-13T02:38:55.833Z,16.58
2022-09-13T02:41:27.567Z,16.52
2022-09-13T02:44:01.404Z,16.67
2022-09-13T02:46:44.080Z,16.62
2022-09-13T02:49:41.124Z,16.59
2022-09-13T02:52:14.166Z,16.57
2022-09-13T02:54:50.586Z,16.61
2022-09-13T02:57:22.455Z,16.65
2022-09-13T02:59:49.655Z,16.68
2022-09-13T03:02:17.231Z,16.64
2022-09-13T03:04:44.725Z,16.67
2022-09-13T03:07:12.380Z,16.67
2022-09-13T03:09:40.847Z,16.72
2022-09-13T03:12:30.139Z,16.76
2022-09-13T03:14:57.392Z,16.84
2022-09-13T03:17:31.050Z,16.76
2022-09-13T03:20:10.900Z,16.71
2022-09-13T03:22:57.357Z,16.75
2022-09-13T03:25:28.042Z,16.73
2022-09-13T03:28:11.757Z,16.69
2022-09-13T03:30:39.090Z,16.82
2022-09-13T03:33:08.070Z,16.61
2022-09-13T03:35:37.789Z,16.65
2022-09-13T03:38:04.954Z,16.24
2022-09-13T03:40:40.341Z,16.33
2022-09-13T03:43:14.645Z,16.27
2022-09-13T03:45:49.860Z,16.15
2022-09-13T03:48:17.315Z,16.25
2022-09-13T03:50:45.890Z,16.32
2022-09-13T03:53:14.043Z,16.39
2022-09-13T03:55:42.549Z,16.39
2022-09-13T03:58:13.900Z,16.39
2022-09-13T04:00:41.469Z,16.49
2022-09-13T04:03:09.333Z,16.47
2022-09-13T04:05:36.609Z,16.50
2022-09-13T04:08:05.757Z,16.50
2022-09-13T04:10:33.513Z,16.57
2022-09-13T04:13:00.789Z,16.51
2022-09-13T04:15:28.564Z,16.47
2022-09-13T04:17:56.115Z,16.52
2022-09-13T04:20:25.080Z,16.54
2022-09-13T04:22:55.771Z,16.49
2022-09-13T04:25:23.478Z,16.65
2022-09-13T04:27:54.105Z,16.67
2022-09-13T04:30:22.001Z,16.69
2022-09-13T04:32:49.451Z,16.71
2022-09-13T04:35:18.021Z,16.56
2022-09-13T04:37:45.568Z,16.62
2022-09-13T04:40:14.029Z,16.72
2022-09-13T04:42:41.361Z,16.70
2022-09-13T04:45:08.820Z,16.68
2022-09-13T04:47:36.291Z,16.74
2022-09-13T04:50:03.836Z,16.83
2022-09-13T04:52:31.038Z,16.87
2022-09-13T04:55:01.563Z,16.88
2022-09-13T04:57:28.980Z,16.82
2022-09-13T04:59:56.170Z,16.84
2022-09-13T05:02:23.692Z,17.05
2022-09-13T05:04:51.074Z,16.99
2022-09-13T05:07:18.324Z,17.08
2022-09-13T05:09:45.856Z,17.12
2022-09-13T05:12:13.262Z,17.02
2022-09-13T05:14:40.516Z,17.26
2022-09-13T05:17:08.086Z,17.30
2022-09-13T05:19:35.472Z,17.41
2022-09-13T05:22:03.060Z,18.10
2022-09-13T05:24:30.552Z,18.37
2022-09-13T05:26:57.756Z,18.44
2022-09-13T05:29:24.942Z,18.37
2022-09-13T05:31:52.572Z,18.23
2022-09-13T05:34:19.921Z,18.20
2022-09-13T05:36:51.713Z,18.12
2022-09-13T05:39:36.277Z,17.74
2022-09-13T05:42:09.420Z,17.76
2022-09-13T05:44:36.905Z,17.60
2022-09-13T05:47:04.236Z,17.46
2022-09-13T05:49:31.434Z,17.51
2022-09-13T05:51:58.956Z,17.53
2022-09-13T05:54:26.148Z,17.43
2022-09-13T05:56:57.446Z,17.55
2022-09-13T05:59:25.094Z,17.41
2022-09-13T06:01:52.356Z,17.59
2022-09-13T06:04:19.925Z,17.56
2022-09-13T06:06:47.191Z,17.82
2022-09-13T06:09:14.386Z,18.09
2022-09-13T06:11:41.846Z,17.98
2022-09-13T06:14:09.617Z,18.23
2022-09-13T06:16:37.139Z,18.31
2022-09-13T06:19:04.705Z,18.72
2022-09-13T06:21:31.951Z,19.13
2022-09-13T06:23:59.235Z,19.34
2022-09-13T06:26:27.821Z,19.52
2022-09-13T06:28:55.886Z,19.68
2022-09-13T06:31:24.584Z,19.87
2022-09-13T06:33:57.409Z,20.07
2022-09-13T06:36:24.839Z,20.06
2022-09-13T06:38:52.340Z,20.22
2022-09-13T06:41:20.510Z,20.42
2022-09-13T06:43:48.038Z,20.39
2022-09-13T06:46:19.459Z,20.50
2022-09-13T06:48:49.026Z,20.53
2022-09-13T06:51:17.987Z,20.67
2022-09-13T06:53:46.692Z,20.63
2022-09-13T06:56:14.872Z,20.55
2022-09-13T06:58:43.581Z,20.47
2022-09-13T07:01:14.894Z,20.76
2022-09-13T07:03:43.686Z,20.65
2022-09-13T07:06:11.872Z,20.54
2022-09-13T07:08:39.521Z,20.67
2022-09-13T07:11:07.189Z,20.68
2022-09-13T07:13:34.451Z,20.65
2022-09-13T07:16:02.572Z,20.23
2022-09-13T07:18:30.246Z,20.54
2022-09-13T07:21:01.713Z,20.33
2022-09-13T07:23:29.661Z,20.42
2022-09-13T07:26:01.925Z,20.63
2022-09-13T07:28:35.095Z,20.54
2022-09-13T07:31:10.116Z,20.81
2022-09-13T07:33:38.003Z,20.64
2022-09-13T07:36:08.627Z,20.43
2022-09-13T07:38:36.381Z,20.50
2022-09-13T07:41:06.548Z,20.70
2022-09-13T07:43:34.628Z,20.57
2022-09-13T07:46:05.816Z,20.08
2022-09-13T07:48:34.178Z,20.33
2022-09-13T07:51:02.884Z,20.23
2022-09-13T07:53:30.186Z,20.93
2022-09-13T07:56:07.493Z,20.45
2022-09-13T07:58:35.451Z,20.23
2022-09-13T08:01:07.471Z,20.18
2022-09-13T08:03:35.393Z,20.02
2022-09-13T08:06:03.135Z,20.48
2022-09-13T08:08:30.592Z,20.89
2022-09-13T08:10:59.189Z,21.13
2022-09-13T08:13:26.760Z,21.03
2022-09-13T08:15:54.000Z,19.98
2022-09-13T08:18:21.541Z,20.48
2022-09-13T08:20:48.716Z,21.07
2022-09-13T08:23:15.947Z,20.73
2022-09-13T08:25:43.402Z,21.08
2022-09-13T08:28:14.857Z,20.86
2022-09-13T08:30:43.597Z,20.90
2022-09-13T08:33:11.389Z,21.13
2022-09-13T08:35:38.832Z,20.96
2022-09-13T08:38:06.253Z,21.03
2022-09-13T08:40:34.648Z,21.22
2022-09-13T08:43:01.770Z,21.31
2022-09-13T08:45:28.984Z,21.52
2022-09-13T08:47:57.167Z,21.27
2022-09-13T08:50:28.325Z,21.32
2022-09-13T08:53:04.665Z,22.02
2022-09-13T08:55:37.925Z,22.14
2022-09-13T08:58:09.267Z,21.93
2022-09-13T09:00:40.794Z,21.91
2022-09-13T09:03:11.041Z,21.81
2022-09-13T09:05:44.462Z,21.59
2022-09-13T09:08:25.335Z,21.91
2022-09-13T09:10:53.469Z,21.13
2022-09-13T09:13:31.760Z,21.31
2022-09-13T09:16:19.625Z,20.88
2022-09-13T09:18:47.101Z,21.74
2022-09-13T09:21:17.893Z,21.37
2022-09-13T09:23:52.117Z,21.24
2022-09-13T09:26:19.642Z,20.78
2022-09-13T09:28:57.187Z,20.75
2022-09-13T09:31:24.790Z,20.84
2022-09-13T09:33:52.007Z,21.08
2022-09-13T09:36:40.197Z,21.45
2022-09-13T09:39:10.267Z,21.96
2022-09-13T09:41:38.482Z,21.74
2022-09-13T09:44:10.938Z,22.07
2022-09-13T09:46:38.827Z,21.76
2022-09-13T09:49:27.762Z,21.99
2022-09-13T09:51:56.510Z,21.90
2022-09-13T09:54:24.945Z,22.38
2022-09-13T09:56:53.040Z,22.85
2022-09-13T09:59:28.628Z,22.64
2022-09-13T10:01:57.834Z,22.99
2022-09-13T10:04:25.904Z,23.43
2022-09-13T10:07:15.620Z,23.64
2022-09-13T10:09:50.874Z,22.42
2022-09-13T10:12:25.602Z,22.25
2022-09-13T10:14:59.069Z,22.77
2022-09-13T10:17:26.668Z,22.46
2022-09-13T10:19:54.348Z,22.79
2022-09-13T10:22:22.512Z,23.32
2022-09-13T10:24:50.726Z,23.64
2022-09-13T10:27:33.185Z,23.74
2022-09-13T10:30:01.024Z,23.33
2022-09-13T10:32:28.567Z,22.91
2022-09-13T10:34:55.941Z,23.60
2022-09-13T10:37:25.249Z,24.14
2022-09-13T10:40:05.368Z,23.73
2022-09-13T10:42:32.640Z,24.14
2022-09-13T10:45:01.365Z,24.28
2022-09-13T10:47:37.877Z,24.01
2022-09-13T10:50:19.129Z,24.14
2022-09-13T10:52:56.272Z,24.17
2022-09-13T10:55:25.797Z,24.33
2022-09-13T10:57:54.166Z,24.45
2022-09-13T11:00:22.918Z,23.61
2022-09-13T11:03:09.256Z,24.16
2022-09-13T11:05:39.823Z,24.11
2022-09-13T11:08:12.722Z,24.56
2022-09-13T11:10:42.969Z,23.93
2022-09-13T11:13:19.718Z,24.29
2022-09-13T11:15:53.711Z,24.09
2022-09-13T11:18:37.757Z,24.38
2022-09-13T11:21:07.997Z,24.87
2022-09-13T11:23:54.030Z,24.99
2022-09-13T11:26:24.231Z,25.06
2022-09-13T11:28:58.810Z,25.22
2022-09-13T11:31:30.433Z,25.32
2022-09-13T11:34:13.862Z,25.18
2022-09-13T11:36:50.204Z,25.06
2022-09-13T11:39:30.983Z,24.84
2022-09-13T11:42:02.478Z,24.78
2022-09-13T11:44:45.663Z,25.00
2022-09-13T11:47:23.071Z,25.14
2022-09-13T11:50:02.934Z,25.22
2022-09-13T11:52:30.159Z,25.28
2022-09-13T11:55:00.716Z,24.04
2022-09-13T11:57:33.171Z,24.31
2022-09-13T12:00:08.998Z,24.73
2022-09-13T12:02:40.718Z,24.72
2022-09-13T12:05:23.031Z,24.67
2022-09-13T12:08:02.752Z,25.00
2022-09-13T12:10:34.155Z,24.56
2022-09-13T12:13:02.220Z,24.89
2022-09-13T12:15:32.988Z,24.71
2022-09-13T12:18:10.279Z,25.19
2022-09-13T12:20:42.570Z,24.90
2022-09-13T12:23:14.810Z,25.34
2022-09-13T12:25:45.905Z,25.15
2022-09-13T12:28:16.689Z,24.85
2022-09-13T12:30:49.177Z,24.81
2022-09-13T12:33:16.443Z,25.29
2022-09-13T12:36:02.827Z,24.65
2022-09-13T12:38:36.248Z,24.53
2022-09-13T12:41:04.960Z,25.13
2022-09-13T12:43:51.147Z,25.28
2022-09-13T12:46:28.040Z,25.39
2022-09-13T12:49:10.006Z,24.95
2022-09-13T12:51:42.715Z,25.23
2022-09-13T12:54:22.383Z,25.23
2022-09-13T12:57:08.938Z,25.43
2022-09-13T12:59:39.545Z,25.45
2022-09-13T13:02:42.377Z,25.58
2022-09-13T13:05:38.737Z,25.09
2022-09-13T13:08:27.070Z,24.57
2022-09-13T13:11:07.954Z,25.36
2022-09-13T13:13:39.261Z,25.32
2022-09-13T13:16:25.623Z,25.01
2022-09-13T13:18:53.940Z,24.86
2022-09-13T13:21:27.631Z,24.86
2022-09-13T13:24:14.116Z,25.17
2022-09-13T13:26:47.531Z,25.09
2022-09-13T13:29:16.685Z,25.51
2022-09-13T13:32:04.358Z,25.52
2022-09-13T13:34:35.203Z,25.62
2022-09-13T13:37:06.494Z,24.78
2022-09-13T13:39:54.270Z,24.97
2022-09-13T13:42:21.572Z,25.03
2022-09-13T13:44:54.871Z,25.05
2022-09-13T13:47:22.079Z,25.82
2022-09-13T13:49:50.389Z,25.75
2022-09-13T13:52:23.715Z,25.72
2022-09-13T13:54:51.723Z,25.43
2022-09-13T13:57:32.168Z,25.55
2022-09-13T14:00:12.144Z,25.46
2022-09-13T14:02:53.533Z,25.74
2022-09-13T14:05:41.300Z,25.66
2022-09-13T14:08:20.958Z,26.02
2022-09-13T14:10:50.608Z,25.35
2022-09-13T14:13:20.976Z,25.46
2022-09-13T14:16:01.304Z,25.06
2022-09-13T14:18:28.504Z,24.55
2022-09-13T14:21:00.224Z,25.08
2022-09-13T14:23:27.633Z,25.16
2022-09-13T14:25:55.793Z,25.95
2022-09-13T14:28:23.635Z,26.12
2022-09-13T14:30:54.993Z,26.18
2022-09-13T14:33:31.052Z,25.78
2022-09-13T14:36:03.880Z,25.50
2022-09-13T14:38:35.794Z,25.66
2022-09-13T14:41:16.624Z,26.25
2022-09-13T14:43:44.663Z,25.93
2022-09-13T14:46:13.770Z,26.21
2022-09-13T14:48:42.446Z,26.08
2022-09-13T14:51:14.581Z,26.08
2022-09-13T14:53:41.907Z,26.32
2022-09-13T14:56:13.564Z,25.82
2022-09-13T14:58:53.997Z,26.10
2022-09-13T15:01:31.559Z,25.35
2022-09-13T15:03:59.592Z,25.40
2022-09-13T15:06:31.795Z,25.77
2022-09-13T15:09:11.595Z,25.69
2022-09-13T15:11:41.103Z,25.75
2022-09-13T15:14:21.127Z,25.60
2022-09-13T15:16:52.873Z,25.68
2022-09-13T15:19:23.113Z,25.66
2022-09-13T15:21:50.642Z,25.65
2022-09-13T15:24:29.464Z,25.67
2022-09-13T15:27:04.370Z,25.73
2022-09-13T15:29:34.898Z,25.66
2022-09-13T15:32:02.587Z,25.45
2022-09-13T15:34:29.988Z,25.67
2022-09-13T15:37:00.015Z,25.71
2022-09-13T15:39:27.786Z,25.76
2022-09-13T15:41:56.552Z,25.79
2022-09-13T15:44:23.893Z,25.75
2022-09-13T15:46:54.800Z,25.75
2022-09-13T15:49:22.743Z,25.65
2022-09-13T15:51:53.915Z,25.61
2022-09-13T15:54:22.966Z,25.54
2022-09-13T15:56:53.117Z,25.62
2022-09-13T15:59:21.006Z,25.63
2022-09-13T16:01:49.469Z,25.62
2022-09-13T16:04:17.058Z,25.41
2022-09-13T16:06:44.526Z,25.50
2022-09-13T16:09:22.124Z,25.53
2022-09-13T16:11:50.235Z,25.58
2022-09-13T16:14:18.017Z,25.51
2022-09-13T16:16:45.719Z,25.44
2022-09-13T16:19:13.962Z,25.52
2022-09-13T16:21:42.949Z,25.53
2022-09-13T16:24:10.226Z,25.51
2022-09-13T16:26:38.099Z,25.48
2022-09-13T16:29:05.601Z,25.42
2022-09-13T16:31:33.000Z,25.38
2022-09-13T16:34:00.617Z,25.35
2022-09-13T16:36:28.930Z,25.38
2022-09-13T16:38:56.632Z,25.36
2022-09-13T16:41:24.162Z,25.33
2022-09-13T16:43:51.529Z,25.30
2022-09-13T16:46:18.879Z,25.26
2022-09-13T16:48:46.454Z,25.21
2022-09-13T16:51:13.791Z,25.13
2022-09-13T16:53:41.840Z,25.12
2022-09-13T16:56:11.058Z,25.08
2022-09-13T16:58:38.891Z,25.04
2022-09-13T17:01:06.776Z,25.02
2022-09-13T17:03:36.095Z,24.94
2022-09-13T17:06:07.934Z,24.91
2022-09-13T17:08:36.196Z,24.88
2022-09-13T17:11:05.249Z,24.83
2022-09-13T17:13:32.613Z,24.83
2022-09-13T17:16:00.240Z,24.79
2022-09-13T17:18:27.649Z,24.58
2022-09-13T17:20:54.984Z,24.60
2022-09-13T17:23:22.545Z,24.72
2022-09-13T17:25:49.899Z,24.72
2022-09-13T17:28:17.512Z,24.68
2022-09-13T17:30:47.840Z,24.68
2022-09-13T17:33:15.405Z,24.63
2022-09-13T17:35:43.645Z,24.49
2022-09-13T17:38:11.825Z,24.51
2022-09-13T17:40:39.188Z,24.53
2022-09-13T17:43:06.549Z,24.51
2022-09-13T17:45:34.197Z,24.51
2022-09-13T17:48:01.635Z,24.52
2022-09-13T17:50:33.517Z,24.49
2022-09-13T17:53:01.208Z,24.43
2022-09-13T17:55:28.621Z,24.39
2022-09-13T17:57:57.695Z,24.31
2022-09-13T18:00:26.401Z,24.40
2022-09-13T18:02:57.667Z,24.39
2022-09-13T18:05:25.104Z,24.34
2022-09-13T18:07:53.342Z,24.27
2022-09-13T18:10:49.182Z,24.27
2022-09-13T18:13:15.292Z,24.12
2022-09-13T18:15:46.469Z,23.83
2022-09-13T18:18:14.211Z,23.86
2022-09-13T18:20:44.872Z,23.88
2022-09-13T18:23:12.409Z,23.89
2022-09-13T18:25:39.736Z,23.99
2022-09-13T18:28:08.285Z,23.94
2022-09-13T18:30:37.570Z,23.89
2022-09-13T18:33:08.621Z,23.74
2022-09-13T18:35:39.329Z,23.75
2022-09-13T18:38:08.761Z,23.71
2022-09-13T18:40:36.382Z,23.56
2022-09-13T18:43:05.397Z,23.61
2022-09-13T18:45:33.872Z,23.65
2022-09-13T18:48:01.183Z,23.63
2022-09-13T18:50:29.075Z,23.49
2022-09-13T18:52:56.470Z,23.59
2022-09-13T18:55:25.720Z,23.55
2022-09-13T18:57:53.405Z,23.54
2022-09-13T19:00:22.487Z,23.42
2022-09-13T19:03:11.421Z,23.42
2022-09-13T19:05:40.817Z,23.36
2022-09-13T19:08:09.383Z,23.37
2022-09-13T19:10:37.435Z,23.24
2022-09-13T19:13:06.556Z,23.28
2022-09-13T19:15:33.911Z,23.20
2022-09-13T19:18:01.275Z,23.19
2022-09-13T19:20:28.823Z,23.08
2022-09-13T19:22:58.193Z,23.05
2022-09-13T19:25:28.081Z,22.95
2022-09-13T19:27:55.628Z,22.96
2022-09-13T19:30:22.892Z,22.92
2022-09-13T19:32:50.152Z,22.76
2022-09-13T19:35:18.312Z,22.70
2022-09-13T19:37:45.588Z,22.67
2022-09-13T19:40:14.322Z,22.64
2022-09-13T19:42:42.088Z,22.62
2022-09-13T19:45:11.017Z,22.56
2022-09-13T19:50:26.920Z,22.50
2022-09-13T19:52:54.150Z,22.52
2022-09-13T19:55:21.447Z,22.47
2022-09-13T19:57:48.943Z,22.42
2022-09-13T20:00:16.241Z,22.39
2022-09-13T20:02:43.841Z,22.29
2022-09-13T20:05:11.225Z,22.20
2022-09-13T20:07:38.566Z,22.26
2022-09-13T20:10:06.492Z,22.19
2022-09-13T20:12:35.990Z,22.17
2022-09-13T20:15:03.363Z,22.17
2022-09-13T20:17:31.080Z,22.15
2022-09-13T20:19:58.479Z,22.23
2022-09-13T20:22:25.702Z,22.04
2022-09-13T20:24:54.156Z,22.21
2022-09-13T20:27:21.822Z,22.13
2022-09-13T20:29:49.210Z,22.07
2022-09-13T20:32:17.002Z,22.05
2022-09-13T20:34:44.298Z,22.08
2022-09-13T20:37:12.393Z,22.01
2022-09-13T20:39:40.443Z,21.93
2022-09-13T20:42:08.828Z,22.00
2022-09-13T20:44:36.193Z,22.08
2022-09-13T20:47:03.908Z,22.13
2022-09-13T20:49:31.257Z,22.10
2022-09-13T20:51:59.269Z,22.07
2022-09-13T20:54:26.806Z,22.14
2022-09-13T20:56:54.301Z,22.12
2022-09-13T20:59:22.720Z,22.23
2022-09-13T21:01:50.314Z,22.19
2022-09-13T21:04:17.661Z,22.32
2022-09-13T21:07:03.649Z,22.35
2022-09-13T21:09:32.534Z,21.81
2022-09-13T21:12:01.276Z,22.14
2022-09-13T21:14:32.292Z,22.30
2022-09-13T21:16:59.935Z,22.14
2022-09-13T21:19:27.230Z,22.23
2022-09-13T21:21:55.088Z,22.27
2022-09-13T21:24:22.678Z,22.30
2022-09-13T21:26:49.912Z,22.34
2022-09-13T21:29:17.156Z,22.37
2022-09-13T21:31:44.726Z,22.35
2022-09-13T21:34:16.333Z,22.33
2022-09-13T21:36:43.925Z,22.19
2022-09-13T21:39:12.542Z,22.01
2022-09-13T21:41:39.768Z,22.07
2022-09-13T21:44:07.161Z,22.14
2022-09-13T21:46:35.150Z,21.97
2022-09-13T21:49:03.384Z,22.10
2022-09-13T21:51:35.015Z,22.13
2022-09-13T21:54:05.571Z,22.07
2022-09-13T21:56:34.752Z,21.92
2022-09-13T21:59:02.463Z,21.98
2022-09-13T22:01:31.709Z,21.96
2022-09-13T22:03:59.674Z,22.18
2022-09-13T22:06:30.291Z,22.23
2022-09-13T22:09:01.873Z,22.30
2022-09-13T22:11:30.261Z,22.28
2022-09-13T22:13:57.891Z,22.22
2022-09-13T22:16:26.651Z,22.21
2022-09-13T22:18:55.705Z,22.17
2022-09-13T22:21:24.088Z,22.12
2022-09-13T22:23:51.689Z,22.11
2022-09-13T22:26:20.593Z,22.04
2022-09-13T22:28:47.975Z,21.95
2022-09-13T22:31:17.646Z,21.90
2022-09-13T22:33:44.934Z,21.84
2022-09-13T22:36:13.600Z,21.81
2022-09-13T22:38:41.720Z,21.81
2022-09-13T22:41:14.959Z,21.66
2022-09-13T22:43:43.160Z,21.65
2022-09-13T22:46:14.495Z,21.53
2022-09-13T22:48:41.981Z,21.41
2022-09-13T22:51:10.525Z,21.40
2022-09-13T22:53:38.567Z,21.39
2022-09-13T22:56:10.419Z,21.28
2022-09-13T22:58:38.107Z,21.33
2022-09-13T23:01:06.496Z,21.35
2022-09-13T23:03:37.328Z,20.91
2022-09-13T23:06:05.198Z,21.34
2022-09-13T23:08:33.229Z,21.25
2022-09-13T23:11:10.457Z,21.31
2022-09-13T23:13:38.051Z,21.47
2022-09-13T23:16:06.005Z,21.47
2022-09-13T23:18:33.771Z,21.49
2022-09-13T23:21:01.963Z,21.51
2022-09-13T23:23:29.165Z,21.43
2022-09-13T23:26:02.814Z,21.42
2022-09-13T23:28:30.998Z,21.39
2022-09-13T23:31:08.194Z,21.36
2022-09-13T23:33:37.478Z,21.30
2022-09-13T23:36:05.024Z,21.16
2022-09-13T23:38:32.239Z,21.23
2022-09-13T23:40:59.835Z,21.20
2022-09-13T23:43:27.288Z,21.14
2022-09-13T23:45:54.643Z,21.15
2022-09-13T23:48:22.433Z,21.08
2022-09-13T23:50:56.978Z,21.00
2022-09-13T23:53:24.633Z,20.98
2022-09-13T23:55:52.043Z,20.84
2022-09-13T23:58:19.261Z,20.81
